Time;durP1;ratioP1;P1;durP2;ratioP2;P2;SDS_P1;SDS_P2;PMS_P1;PMS_P2;Temp;Humidity;BMP_temperature;BMP_pressure;BME280_temperature;BME280_humidity;BME280_pressure;Samples;Min_cycle;Max_cycle;Signal;HPM_P1;HPM_P2
2021/07/08 00:02:15;;;;;;;5.90;3.93;;;15.90;99.90;;;;;;4999612;28;20295;-57
2021/07/08 00:04:42;;;;;;;6.00;3.53;;;15.90;99.90;;;;;;5000106;28;20555;-60
2021/07/08 00:07:11;;;;;;;5.30;3.67;;;15.90;99.90;;;;;;4999011;28;21258;-59
2021/07/08 00:09:38;;;;;;;5.80;3.10;;;15.90;99.90;;;;;;5000085;28;20513;-59
2021/07/08 00:12:05;;;;;;;5.07;3.80;;;15.90;99.90;;;;;;4998918;28;20478;-59
2021/07/08 00:14:31;;;;;;;12.20;4.60;;;15.90;99.90;;;;;;4996760;28;20439;-58
2021/07/08 00:16:57;;;;;;;6.60;4.43;;;15.80;99.90;;;;;;5012367;28;20478;-60
2021/07/08 00:19:23;;;;;;;7.00;5.10;;;15.90;99.90;;;;;;5000472;28;21111;-58
2021/07/08 00:21:48;;;;;;;12.60;5.10;;;15.90;99.90;;;;;;4999878;28;20209;-58
2021/07/08 00:24:14;;;;;;;6.47;4.50;;;15.90;99.90;;;;;;4996678;28;20180;-59
2021/07/08 00:26:40;;;;;;;7.17;4.80;;;15.80;99.90;;;;;;4998171;28;20536;-58
2021/07/08 00:29:05;;;;;;;8.47;4.50;;;15.80;99.90;;;;;;4998229;28;20173;-58
2021/07/08 00:31:31;;;;;;;5.13;4.33;;;15.80;99.90;;;;;;5000230;28;20204;-59
2021/07/08 00:34:00;;;;;;;7.30;4.83;;;15.90;99.90;;;;;;5015531;28;20735;-59
2021/07/08 00:36:26;;;;;;;8.07;5.67;;;15.90;99.90;;;;;;5009580;28;20185;-59
2021/07/08 00:38:52;;;;;;;8.77;5.80;;;15.90;99.90;;;;;;4997800;28;20431;-59
2021/07/08 00:41:21;;;;;;;6.90;4.50;;;15.80;99.90;;;;;;5000700;28;21117;-58
2021/07/08 00:43:51;;;;;;;4.33;3.90;;;15.80;99.90;;;;;;4997029;28;20696;-59
2021/07/08 00:46:17;;;;;;;6.70;4.30;;;15.90;99.90;;;;;;4999223;28;21034;-58
2021/07/08 00:48:43;;;;;;;6.57;5.30;;;15.90;99.90;;;;;;4997839;28;20427;-60
2021/07/08 00:51:08;;;;;;;5.40;4.70;;;15.90;99.90;;;;;;4993317;28;20446;-58
2021/07/08 00:53:34;;;;;;;5.93;5.17;;;15.90;99.90;;;;;;5000209;28;20204;-58
2021/07/08 00:56:03;;;;;;;6.43;5.50;;;15.90;99.90;;;;;;4997916;28;20181;-60
2021/07/08 00:58:28;;;;;;;6.77;5.10;;;15.90;99.90;;;;;;4995724;28;20275;-59
2021/07/08 01:00:54;;;;;;;11.30;6.00;;;15.90;99.90;;;;;;5000710;28;20570;-59
2021/07/08 01:03:21;;;;;;;9.87;5.73;;;15.90;99.90;;;;;;4997382;28;20723;-58
2021/07/08 01:05:50;;;;;;;5.47;4.97;;;15.90;99.90;;;;;;5000265;28;20185;-58
2021/07/08 01:08:16;;;;;;;8.87;5.53;;;15.90;99.90;;;;;;4997139;28;20466;-58
2021/07/08 01:10:43;;;;;;;6.53;5.93;;;15.90;99.90;;;;;;4999042;28;20439;-59
2021/07/08 01:13:10;;;;;;;5.83;5.03;;;15.90;99.90;;;;;;4999302;28;20489;-58
2021/07/08 01:15:39;;;;;;;5.73;5.20;;;15.90;99.90;;;;;;4995576;28;20493;-59
2021/07/08 01:18:08;;;;;;;8.83;6.33;;;15.90;99.90;;;;;;5005873;28;20444;-61
2021/07/08 01:20:35;;;;;;;6.37;5.43;;;15.90;99.90;;;;;;5013131;28;20427;-58
2021/07/08 01:23:01;;;;;;;7.30;5.40;;;15.90;99.90;;;;;;5011311;28;20518;-59
2021/07/08 01:25:36;;;;;;;5.80;4.70;;;15.90;99.90;;;;;;5010172;28;20470;-60
2021/07/08 01:28:07;;;;;;;7.70;4.60;;;15.90;99.90;;;;;;5002554;28;20449;-59
2021/07/08 01:30:33;;;;;;;6.30;4.77;;;15.90;99.90;;;;;;4997436;28;20436;-60
2021/07/08 01:33:00;;;;;;;5.30;4.83;;;16.00;99.90;;;;;;4997600;28;20590;-59
2021/07/08 01:35:29;;;;;;;5.40;4.17;;;16.00;99.90;;;;;;4998169;28;20477;-58
2021/07/08 01:37:55;;;;;;;5.40;4.87;;;16.00;99.90;;;;;;4996322;28;20419;-60
2021/07/08 01:40:21;;;;;;;9.37;5.10;;;16.00;99.90;;;;;;4998452;28;20431;-58
2021/07/08 01:42:47;;;;;;;6.87;5.60;;;16.00;99.90;;;;;;4997575;28;20961;-58
2021/07/08 01:45:15;;;;;;;6.50;5.57;;;16.10;99.90;;;;;;4998378;28;20439;-61
2021/07/08 01:47:43;;;;;;;6.77;5.20;;;16.10;99.90;;;;;;4996350;28;20180;-60
2021/07/08 01:50:21;;;;;;;5.30;4.80;;;16.10;99.90;;;;;;5011453;28;20783;-58
2021/07/08 01:52:48;;;;;;;7.33;5.60;;;16.10;99.90;;;;;;4997583;28;20811;-58
2021/07/08 01:55:14;;;;;;;5.90;5.30;;;16.10;99.90;;;;;;4995745;28;20454;-59
2021/07/08 01:57:44;;;;;;;9.87;5.50;;;16.10;99.90;;;;;;4999744;28;21505;-60
2021/07/08 02:00:14;;;;;;;5.60;5.07;;;16.10;99.90;;;;;;4996810;28;20188;-59
2021/07/08 02:02:40;;;;;;;7.20;5.07;;;16.10;99.90;;;;;;4997587;28;21172;-59
2021/07/08 02:08:32;;;;;;;7.60;4.90;;;16.10;99.90;;;;;;5002491;28;20462;-59
2021/07/08 02:10:57;;;;;;;7.40;4.50;;;16.10;99.90;;;;;;4996523;28;20438;-59
2021/07/08 02:13:26;;;;;;;15.43;5.30;;;16.10;99.90;;;;;;4994280;28;20460;-60
2021/07/08 02:15:51;;;;;;;7.43;4.60;;;16.10;99.90;;;;;;4997973;28;20415;-58
2021/07/08 02:18:24;;;;;;;5.10;4.37;;;16.10;99.90;;;;;;4996706;28;20497;-58
2021/07/08 02:20:50;;;;;;;6.13;4.77;;;16.10;99.90;;;;;;4990955;28;20200;-59
2021/07/08 02:23:18;;;;;;;3.90;3.37;;;16.10;99.90;;;;;;4998333;28;20572;-59
2021/07/08 02:26:05;;;;;;;3.77;3.37;;;16.10;99.90;;;;;;5010036;28;20177;-58
2021/07/08 02:28:31;;;;;;;4.50;4.10;;;16.00;99.90;;;;;;4997357;28;20428;-60
2021/07/08 02:30:56;;;;;;;7.13;3.80;;;16.00;99.90;;;;;;4996638;28;20432;-58
2021/07/08 02:33:23;;;;;;;4.93;4.53;;;16.00;99.90;;;;;;4998542;28;20204;-59
2021/07/08 02:35:49;;;;;;;7.63;4.20;;;16.00;99.90;;;;;;5011651;28;20181;-59
2021/07/08 02:38:14;;;;;;;4.53;4.10;;;16.00;99.90;;;;;;5001284;28;20498;-59
2021/07/08 02:40:43;;;;;;;5.13;3.80;;;16.00;99.90;;;;;;4995195;28;20228;-60
2021/07/08 02:43:09;;;;;;;5.13;4.30;;;16.00;99.90;;;;;;4998973;28;20706;-59
2021/07/08 02:45:37;;;;;;;10.10;4.70;;;16.00;99.90;;;;;;4997154;28;20423;-59
2021/07/08 02:48:09;;;;;;;6.50;4.40;;;16.00;99.90;;;;;;4998038;28;20419;-60
2021/07/08 02:50:37;;;;;;;4.93;3.53;;;15.90;99.90;;;;;;4995722;28;20486;-59
2021/07/08 02:53:03;;;;;;;4.70;3.27;;;15.90;99.90;;;;;;4999051;28;20457;-58
2021/07/08 02:55:30;;;;;;;8.70;4.70;;;15.90;99.90;;;;;;5003849;28;20438;-59
2021/07/08 02:57:59;;;;;;;9.40;4.13;;;15.90;99.90;;;;;;4999729;28;20458;-61
2021/07/08 03:00:26;;;;;;;4.43;4.03;;;15.90;99.90;;;;;;5005848;28;20447;-59
2021/07/08 03:02:52;;;;;;;4.53;4.10;;;15.90;99.90;;;;;;5000514;28;20836;-59
2021/07/08 03:05:18;;;;;;;5.93;4.13;;;15.90;99.90;;;;;;5011054;28;20443;-58
2021/07/08 03:07:43;;;;;;;7.60;4.87;;;15.90;99.90;;;;;;5002019;28;20475;-58
2021/07/08 03:10:15;;;;;;;5.93;4.00;;;15.90;99.90;;;;;;5002240;28;20223;-59
2021/07/08 03:12:40;;;;;;;4.47;4.07;;;15.90;99.90;;;;;;4999515;28;20287;-60
2021/07/08 03:15:08;;;;;;;9.73;4.33;;;15.90;99.90;;;;;;5004975;28;20547;-59
2021/07/08 03:17:34;;;;;;;4.30;3.90;;;16.00;99.90;;;;;;4995618;28;20588;-59
2021/07/08 03:20:00;;;;;;;6.50;3.70;;;16.00;99.90;;;;;;5001107;28;20443;-60
2021/07/08 03:22:26;;;;;;;4.13;3.73;;;15.90;99.90;;;;;;5000103;28;20477;-61
2021/07/08 03:24:52;;;;;;;5.80;3.60;;;15.90;99.90;;;;;;5000402;28;20439;-60
2021/07/08 03:27:18;;;;;;;4.60;3.70;;;16.00;99.90;;;;;;4999169;28;20554;-58
2021/07/08 03:29:44;;;;;;;4.53;3.60;;;16.00;99.90;;;;;;5001291;28;20255;-60
2021/07/08 03:32:09;;;;;;;7.03;3.90;;;15.90;99.90;;;;;;5001149;28;20212;-58
2021/07/08 03:34:35;;;;;;;5.10;3.90;;;15.90;99.90;;;;;;5003002;28;20234;-61
2021/07/08 03:37:01;;;;;;;5.50;3.73;;;15.90;99.90;;;;;;4998431;28;20185;-59
2021/07/08 03:39:27;;;;;;;4.93;3.67;;;15.90;99.90;;;;;;5002656;28;20172;-57
2021/07/08 03:41:55;;;;;;;8.87;4.47;;;15.90;99.90;;;;;;5000676;28;20783;-59
2021/07/08 03:44:21;;;;;;;7.40;4.10;;;16.00;99.90;;;;;;5000844;28;20255;-58
2021/07/08 03:46:47;;;;;;;3.60;3.30;;;16.00;99.90;;;;;;4997089;28;20923;-58
2021/07/08 03:49:12;;;;;;;4.83;4.27;;;16.00;99.90;;;;;;5000647;28;20838;-59
2021/07/08 03:51:39;;;;;;;5.13;4.10;;;16.00;99.90;;;;;;4990161;28;20184;-58
2021/07/08 03:54:06;;;;;;;6.67;4.27;;;16.00;99.90;;;;;;4994462;28;20196;-58
2021/07/08 03:56:31;;;;;;;3.87;3.57;;;16.00;99.90;;;;;;4990566;28;20857;-58
2021/07/08 03:58:57;;;;;;;5.30;4.30;;;16.00;99.90;;;;;;4992346;28;20439;-58
2021/07/08 04:01:26;;;;;;;6.33;3.93;;;16.00;99.90;;;;;;4981623;28;20204;-57
2021/07/08 04:03:52;;;;;;;4.43;4.00;;;16.00;99.90;;;;;;4984470;28;20514;-57
2021/07/08 04:06:18;;;;;;;4.50;3.33;;;16.10;99.90;;;;;;4990629;28;20428;-57
2021/07/08 04:08:44;;;;;;;4.40;3.47;;;16.00;99.90;;;;;;4985466;28;20486;-56
2021/07/08 04:11:09;;;;;;;4.83;3.73;;;16.10;99.90;;;;;;4990310;28;20192;-59
2021/07/08 04:13:35;;;;;;;4.07;3.77;;;16.10;99.90;;;;;;4991994;28;20199;-58
2021/07/08 04:16:01;;;;;;;7.27;4.30;;;16.10;99.90;;;;;;4996077;28;20323;-57
2021/07/08 04:18:27;;;;;;;6.13;4.00;;;16.10;99.90;;;;;;4990920;28;20990;-59
2021/07/08 04:20:53;;;;;;;5.30;4.30;;;16.10;99.90;;;;;;4996401;28;20761;-58
2021/07/08 04:23:19;;;;;;;6.53;5.40;;;16.10;99.90;;;;;;5003435;28;20216;-58
2021/07/08 04:25:44;;;;;;;6.10;4.57;;;16.10;99.90;;;;;;4995567;28;20257;-57
2021/07/08 04:28:11;;;;;;;9.43;5.47;;;16.10;99.90;;;;;;5001786;28;20184;-57
2021/07/08 04:30:37;;;;;;;8.27;4.57;;;16.20;99.90;;;;;;5004894;28;20232;-58
2021/07/08 04:33:03;;;;;;;4.87;4.43;;;16.20;99.90;;;;;;5001519;28;20470;-58
2021/07/08 04:35:39;;;;;;;9.10;4.77;;;16.20;99.90;;;;;;4997943;28;20424;-60
2021/07/08 04:38:07;;;;;;;5.63;4.90;;;16.20;99.90;;;;;;4992567;28;20595;-56
2021/07/08 04:40:34;;;;;;;5.47;4.63;;;16.10;99.90;;;;;;4993578;28;20435;-58
2021/07/08 04:43:00;;;;;;;8.43;6.10;;;16.10;99.90;;;;;;5000696;28;20475;-56
2021/07/08 04:45:25;;;;;;;9.93;5.93;;;16.10;99.90;;;;;;4999265;28;20440;-57
2021/07/08 04:47:51;;;;;;;9.00;5.10;;;16.10;99.90;;;;;;5001110;28;20169;-58
2021/07/08 04:50:20;;;;;;;4.43;3.87;;;16.10;99.90;;;;;;5001079;28;20926;-58
2021/07/08 04:52:47;;;;;;;5.33;3.60;;;16.10;99.90;;;;;;5005466;28;20764;-57
2021/07/08 04:55:15;;;;;;;4.00;3.63;;;16.10;99.90;;;;;;5001392;28;20821;-56
2021/07/08 04:57:41;;;;;;;7.10;3.20;;;16.10;99.90;;;;;;5003004;28;20944;-59
2021/07/08 05:00:09;;;;;;;3.87;3.30;;;16.10;99.90;;;;;;5000554;28;20524;-55
2021/07/08 05:02:43;;;;;;;3.73;3.30;;;16.10;99.90;;;;;;5002112;28;20283;-59
2021/07/08 05:05:10;;;;;;;3.30;3.00;;;16.10;99.90;;;;;;5000904;28;20538;-57
2021/07/08 05:07:39;;;;;;;9.07;3.70;;;16.10;99.90;;;;;;5002853;28;20434;-57
2021/07/08 05:10:10;;;;;;;4.27;3.10;;;16.10;99.90;;;;;;5007917;28;20423;-59
2021/07/08 05:12:36;;;;;;;4.27;3.83;;;16.10;99.90;;;;;;5005645;28;20509;-58
2021/07/08 05:15:03;;;;;;;6.53;4.80;;;16.10;99.90;;;;;;5008153;28;20416;-57
2021/07/08 05:17:29;;;;;;;6.90;4.87;;;16.10;99.90;;;;;;5007552;28;20191;-60
2021/07/08 05:19:55;;;;;;;7.40;4.00;;;16.10;99.90;;;;;;5008302;28;20805;-56
2021/07/08 05:22:22;;;;;;;8.03;4.70;;;16.10;99.90;;;;;;5004798;28;20263;-56
2021/07/08 05:24:48;;;;;;;4.43;4.00;;;16.00;99.90;;;;;;5007422;28;20201;-58
2021/07/08 05:27:17;;;;;;;4.93;4.47;;;16.00;99.90;;;;;;5009216;28;20436;-57
2021/07/08 05:29:47;;;;;;;7.17;4.07;;;16.10;99.90;;;;;;5004835;28;20934;-59
2021/07/08 05:32:14;;;;;;;5.27;4.30;;;16.10;99.90;;;;;;5001651;28;20471;-57
2021/07/08 05:34:40;;;;;;;4.70;4.30;;;16.10;99.90;;;;;;5008869;28;20439;-58
2021/07/08 05:37:07;;;;;;;5.97;4.50;;;16.10;99.90;;;;;;5008603;28;20467;-57
2021/07/08 05:39:33;;;;;;;8.57;4.17;;;16.20;99.90;;;;;;5008857;28;20740;-57
2021/07/08 05:41:58;;;;;;;5.00;4.50;;;16.20;99.90;;;;;;5004891;28;20510;-58
2021/07/08 05:44:24;;;;;;;6.00;4.23;;;16.20;99.90;;;;;;5008706;28;20180;-57
2021/07/08 05:46:50;;;;;;;4.90;4.40;;;16.20;99.90;;;;;;5008101;28;20169;-57
2021/07/08 05:49:15;;;;;;;6.47;4.83;;;16.30;99.90;;;;;;5007938;28;20275;-57
2021/07/08 05:51:41;;;;;;;6.73;4.33;;;16.30;99.90;;;;;;5007294;28;20238;-58
2021/07/08 05:54:07;;;;;;;4.60;4.00;;;16.30;99.90;;;;;;5001900;28;20181;-58
2021/07/08 05:56:32;;;;;;;7.13;4.37;;;16.30;99.90;;;;;;5007359;28;20187;-57
2021/07/08 05:58:58;;;;;;;4.30;3.70;;;16.30;99.90;;;;;;5005637;28;20183;-59
2021/07/08 06:01:24;;;;;;;5.00;4.47;;;16.30;99.90;;;;;;5006757;28;20204;-56
2021/07/08 06:03:50;;;;;;;5.97;4.37;;;16.30;99.90;;;;;;4999027;28;20783;-59
2021/07/08 06:06:19;;;;;;;7.47;5.10;;;16.30;99.90;;;;;;5007500;28;20176;-57
2021/07/08 06:08:46;;;;;;;9.57;5.23;;;16.30;99.90;;;;;;5009742;28;20400;-58
2021/07/08 06:11:15;;;;;;;6.33;5.43;;;16.30;99.90;;;;;;5006024;28;20427;-57
2021/07/08 06:13:41;;;;;;;7.33;5.63;;;16.30;99.90;;;;;;5007094;28;20805;-58
2021/07/08 06:16:07;;;;;;;7.27;6.57;;;16.40;99.90;;;;;;5012555;28;20518;-58
2021/07/08 06:18:33;;;;;;;6.83;6.13;;;16.40;99.90;;;;;;5007530;28;20450;-59
2021/07/08 06:20:58;;;;;;;9.63;5.90;;;16.40;99.90;;;;;;5005503;28;20732;-58
2021/07/08 06:23:24;;;;;;;7.47;6.07;;;16.40;99.90;;;;;;5007493;28;20668;-57
2021/07/08 06:25:51;;;;;;;10.73;5.27;;;16.40;99.90;;;;;;5008154;28;20176;-58
2021/07/08 06:31:38;;;;;;;8.33;5.23;;;16.40;99.90;;;;;;5005711;28;20468;-58
2021/07/08 06:34:06;;;;;;;10.10;4.23;;;16.50;99.90;;;;;;5011755;28;20423;-59
2021/07/08 06:36:33;;;;;;;6.00;4.50;;;16.50;99.90;;;;;;5012449;28;20184;-60
2021/07/08 06:38:58;;;;;;;5.53;4.50;;;16.50;99.90;;;;;;5012487;28;20461;-59
2021/07/08 06:41:24;;;;;;;4.53;4.07;;;16.50;99.90;;;;;;5009159;28;21822;-58
2021/07/08 06:43:50;;;;;;;4.50;4.10;;;16.60;99.90;;;;;;5012947;28;20189;-58
2021/07/08 06:46:25;;;;;;;4.87;3.83;;;16.60;99.90;;;;;;5010098;28;20575;-59
2021/07/08 06:48:51;;;;;;;4.63;3.60;;;16.60;99.90;;;;;;5005739;28;20199;-58
2021/07/08 06:51:17;;;;;;;4.83;3.70;;;16.50;99.90;;;;;;5010316;28;20431;-59
2021/07/08 06:53:42;;;;;;;5.33;3.73;;;16.50;99.90;;;;;;5012125;28;20600;-58
2021/07/08 06:56:08;;;;;;;7.37;4.13;;;16.50;99.90;;;;;;5008812;28;20184;-58
2021/07/08 06:58:33;;;;;;;4.63;4.03;;;16.60;99.90;;;;;;5010999;28;20180;-58
2021/07/08 07:00:59;;;;;;;5.67;4.77;;;16.60;99.90;;;;;;5007845;28;20209;-60
2021/07/08 07:03:26;;;;;;;7.57;4.97;;;16.70;99.90;;;;;;5010848;28;20215;-58
2021/07/08 07:05:51;;;;;;;5.77;5.20;;;16.70;99.90;;;;;;5011709;28;20188;-60
2021/07/08 07:08:17;;;;;;;6.80;5.37;;;16.80;99.90;;;;;;5009781;28;20447;-60
2021/07/08 07:10:42;;;;;;;13.17;5.53;;;16.80;99.90;;;;;;5008969;28;20567;-59
2021/07/08 07:13:12;;;;;;;8.43;6.00;;;16.80;99.90;;;;;;5009938;28;20196;-58
2021/07/08 07:15:41;;;;;;;7.77;5.33;;;16.90;99.90;;;;;;5008262;28;20184;-58
2021/07/08 07:18:07;;;;;;;5.60;4.70;;;16.90;99.90;;;;;;5008418;28;20512;-58
2021/07/08 07:20:33;;;;;;;6.10;4.63;;;16.90;99.90;;;;;;5008101;28;20435;-57
2021/07/08 07:23:00;;;;;;;7.53;4.90;;;16.90;99.90;;;;;;5009886;28;20474;-57
2021/07/08 07:25:27;;;;;;;5.27;4.77;;;16.90;99.90;;;;;;5011094;28;20438;-57
2021/07/08 07:27:54;;;;;;;7.67;4.40;;;16.90;99.90;;;;;;5007968;28;20423;-58
2021/07/08 07:30:23;;;;;;;5.03;4.53;;;16.90;99.90;;;;;;5009047;28;20462;-57
2021/07/08 07:32:49;;;;;;;4.20;3.80;;;16.90;99.90;;;;;;5007611;28;21049;-58
2021/07/08 07:35:15;;;;;;;5.57;4.43;;;16.90;99.90;;;;;;5005470;28;20943;-59
2021/07/08 07:37:41;;;;;;;4.97;4.40;;;17.00;99.90;;;;;;5018280;28;20427;-59
2021/07/08 07:40:08;;;;;;;7.37;4.70;;;16.90;99.90;;;;;;5020025;28;20687;-59
2021/07/08 07:42:34;;;;;;;5.57;4.90;;;17.00;99.90;;;;;;5010742;28;20472;-65
2021/07/08 07:45:01;;;;;;;9.60;7.53;;;17.10;99.90;;;;;;5016784;28;20427;-59
2021/07/08 07:47:28;;;;;;;7.50;4.90;;;17.20;99.90;;;;;;5013910;28;20422;-58
2021/07/08 07:49:54;;;;;;;5.73;4.83;;;17.30;99.90;;;;;;5005069;28;20518;-56
2021/07/08 07:52:20;;;;;;;8.73;5.50;;;17.30;99.90;;;;;;5004478;28;21153;-58
2021/07/08 07:54:45;;;;;;;5.17;4.67;;;17.40;99.90;;;;;;5008082;28;20439;-59
2021/07/08 07:57:12;;;;;;;5.43;4.93;;;17.40;99.90;;;;;;5010222;28;20176;-60
2021/07/08 07:59:38;;;;;;;6.40;5.10;;;17.40;99.90;;;;;;5007494;28;20181;-59
2021/07/08 08:02:09;;;;;;;7.03;4.80;;;17.50;99.90;;;;;;5008539;28;20478;-60
2021/07/08 08:04:41;;;;;;;8.00;5.93;;;17.40;99.90;;;;;;5009013;28;20490;-58
2021/07/08 08:09:52;;;;;;;8.43;4.97;;;17.50;99.90;;;;;;4992436;28;20408;-60
2021/07/08 08:12:17;;;;;;;8.27;4.73;;;17.50;99.90;;;;;;5005926;28;20459;-58
2021/07/08 08:14:43;;;;;;;5.00;4.27;;;17.50;99.90;;;;;;5007530;28;20188;-58
2021/07/08 08:17:08;;;;;;;8.17;5.90;;;17.60;99.90;;;;;;5009000;28;20192;-59
2021/07/08 08:19:34;;;;;;;5.77;4.70;;;17.60;99.90;;;;;;5008842;28;20195;-60
2021/07/08 08:22:00;;;;;;;5.07;4.10;;;17.60;99.90;;;;;;5010429;28;20208;-58
2021/07/08 08:24:25;;;;;;;4.93;4.27;;;17.60;99.90;;;;;;5004221;28;20652;-58
2021/07/08 08:26:52;;;;;;;4.40;3.93;;;17.60;99.90;;;;;;4998657;28;20179;-59
2021/07/08 08:29:19;;;;;;;4.40;4.00;;;17.60;99.90;;;;;;5003005;28;20177;-57
2021/07/08 08:31:45;;;;;;;7.00;4.70;;;17.60;99.90;;;;;;5004249;28;20450;-61
2021/07/08 08:34:11;;;;;;;3.90;3.50;;;17.60;99.90;;;;;;5007936;28;20435;-59
2021/07/08 08:36:37;;;;;;;3.60;3.10;;;17.70;99.90;;;;;;4998663;28;20192;-57
2021/07/08 08:39:03;;;;;;;3.83;3.50;;;17.70;99.90;;;;;;4996283;28;20206;-58
2021/07/08 08:41:32;;;;;;;3.50;3.20;;;17.80;99.90;;;;;;4998911;28;21138;-57
2021/07/08 08:43:59;;;;;;;3.83;3.47;;;17.90;99.90;;;;;;5003260;28;20439;-59
2021/07/08 08:46:25;;;;;;;4.03;3.60;;;17.90;99.90;;;;;;4992933;28;20436;-58
2021/07/08 08:48:51;;;;;;;4.57;4.00;;;18.00;99.90;;;;;;5001727;28;20510;-59
2021/07/08 08:51:17;;;;;;;3.50;3.20;;;18.00;99.90;;;;;;5005572;28;20185;-59
2021/07/08 08:53:43;;;;;;;5.03;3.30;;;18.10;99.90;;;;;;5009943;28;20201;-59
2021/07/08 08:56:09;;;;;;;4.20;3.37;;;18.00;99.90;;;;;;5002540;28;20419;-59
2021/07/08 08:58:36;;;;;;;4.30;2.83;;;18.10;99.90;;;;;;5008447;28;20843;-58
2021/07/08 09:01:05;;;;;;;4.83;3.47;;;18.10;99.90;;;;;;5007566;28;20251;-59
2021/07/08 09:03:33;;;;;;;4.33;3.53;;;18.00;99.90;;;;;;5007402;28;20469;-58
2021/07/08 09:06:12;;;;;;;4.23;3.60;;;18.00;99.90;;;;;;5008104;28;21133;-58
2021/07/08 09:08:40;;;;;;;4.50;3.50;;;18.00;99.90;;;;;;5009567;28;20404;-58
2021/07/08 09:11:09;;;;;;;4.00;3.60;;;17.90;99.90;;;;;;4998248;28;20531;-58
2021/07/08 09:14:00;;;;;;;4.40;4.00;;;17.90;99.90;;;;;;5009610;28;20443;-58
2021/07/08 09:16:27;;;;;;;6.37;3.57;;;17.80;99.90;;;;;;5010442;28;20479;-59
2021/07/08 09:19:05;;;;;;;3.97;3.50;;;17.80;99.90;;;;;;5008888;28;20975;-58
2021/07/08 09:21:34;;;;;;;4.23;3.83;;;17.70;99.90;;;;;;5006382;28;20508;-58
2021/07/08 09:24:06;;;;;;;4.10;3.13;;;17.70;99.90;;;;;;5009292;28;20505;-58
2021/07/08 09:26:32;;;;;;;5.60;3.87;;;17.70;99.90;;;;;;5008375;28;20416;-58
2021/07/08 09:29:05;;;;;;;5.40;3.47;;;17.60;99.90;;;;;;5006290;28;20856;-59
2021/07/08 09:31:32;;;;;;;5.20;3.13;;;17.60;99.90;;;;;;5008135;28;20442;-58
2021/07/08 09:34:18;;;;;;;3.53;2.87;;;17.60;99.90;;;;;;5009211;28;20431;-58
2021/07/08 09:36:47;;;;;;;3.00;2.80;;;17.60;99.90;;;;;;5008187;28;20427;-58
2021/07/08 09:39:13;;;;;;;3.53;3.23;;;17.60;99.90;;;;;;5010050;28;20491;-59
2021/07/08 09:41:47;;;;;;;3.70;3.30;;;17.60;99.90;;;;;;5008508;28;20451;-59
2021/07/08 09:44:21;;;;;;;3.63;3.33;;;17.60;99.90;;;;;;5008877;28;20445;-59
2021/07/08 09:46:47;;;;;;;3.83;3.53;;;17.60;99.90;;;;;;5007866;28;20463;-59
2021/07/08 09:49:13;;;;;;;4.20;3.70;;;17.60;99.90;;;;;;5021153;28;20506;-59
2021/07/08 09:51:41;;;;;;;5.80;3.50;;;17.50;99.90;;;;;;4996542;28;20839;-58
2021/07/08 09:54:12;;;;;;;4.90;3.33;;;17.50;99.90;;;;;;5004976;28;20647;-58
2021/07/08 09:56:45;;;;;;;2.17;2.03;;;17.50;99.90;;;;;;4992676;28;20427;-58
2021/07/08 09:59:12;;;;;;;2.20;2.00;;;17.50;99.90;;;;;;5006586;28;20411;-58
2021/07/08 10:01:38;;;;;;;2.40;2.20;;;17.50;99.90;;;;;;5005250;28;21041;-58
2021/07/08 10:04:03;;;;;;;2.50;2.30;;;17.50;99.90;;;;;;5003162;28;20431;-58
2021/07/08 10:06:31;;;;;;;2.63;1.80;;;17.50;99.90;;;;;;5005058;28;20172;-58
2021/07/08 10:08:58;;;;;;;2.10;1.67;;;17.60;99.90;;;;;;4999039;28;20707;-58
2021/07/08 10:11:24;;;;;;;1.50;1.40;;;17.60;99.90;;;;;;5002912;28;20428;-59
2021/07/08 10:13:51;;;;;;;1.60;1.40;;;17.60;99.90;;;;;;5007893;28;20814;-58
2021/07/08 10:16:19;;;;;;;2.57;2.00;;;17.60;99.90;;;;;;5008714;28;20476;-59
2021/07/08 10:18:48;;;;;;;3.10;1.90;;;17.60;99.90;;;;;;5009011;28;20419;-58
2021/07/08 10:21:16;;;;;;;2.10;1.60;;;17.60;99.90;;;;;;5007817;28;20491;-58
2021/07/08 10:23:41;;;;;;;1.90;1.63;;;17.60;99.90;;;;;;5003684;28;20487;-59
2021/07/08 10:26:09;;;;;;;3.23;1.97;;;17.60;99.90;;;;;;5002383;28;20434;-60
2021/07/08 10:28:42;;;;;;;2.23;1.90;;;17.60;99.90;;;;;;5009041;28;20252;-58
2021/07/08 10:31:08;;;;;;;2.30;2.10;;;17.60;99.90;;;;;;5009069;28;20459;-59
2021/07/08 10:33:34;;;;;;;2.13;2.03;;;17.60;99.90;;;;;;5007898;28;20484;-59
2021/07/08 10:35:59;;;;;;;2.50;2.30;;;17.60;99.90;;;;;;5001774;28;20891;-59
2021/07/08 10:38:32;;;;;;;2.50;2.00;;;17.60;99.90;;;;;;5008545;28;20185;-59
2021/07/08 10:41:00;;;;;;;4.07;2.20;;;17.60;99.90;;;;;;5008310;28;20191;-59
2021/07/08 10:43:40;;;;;;;4.90;3.93;;;17.60;99.90;;;;;;4996005;28;20456;-58
2021/07/08 10:46:11;;;;;;;4.40;2.97;;;17.60;99.90;;;;;;4998555;28;20414;-58
2021/07/08 10:48:41;;;;;;;3.30;3.00;;;17.60;99.90;;;;;;5007261;28;21014;-58
2021/07/08 10:51:09;;;;;;;3.73;2.57;;;17.60;99.90;;;;;;5006110;28;20438;-58
2021/07/08 10:53:41;;;;;;;4.07;2.90;;;17.70;99.90;;;;;;5006925;28;20481;-57
2021/07/08 10:56:19;;;;;;;3.70;3.30;;;17.70;99.90;;;;;;5008672;28;20420;-58
2021/07/08 10:58:52;;;;;;;2.03;1.93;;;17.70;99.90;;;;;;5009062;28;20407;-58
2021/07/08 11:01:25;;;;;;;2.77;2.33;;;17.80;99.90;;;;;;5002036;28;20485;-58
2021/07/08 11:04:02;;;;;;;2.13;2.00;;;17.80;99.90;;;;;;5023595;28;20446;-59
2021/07/08 11:06:31;;;;;;;3.10;2.20;;;17.80;99.90;;;;;;4993616;28;20435;-58
2021/07/08 11:09:07;;;;;;;2.33;2.23;;;17.80;99.90;;;;;;4996224;28;22084;-60
2021/07/08 11:11:35;;;;;;;2.60;2.10;;;17.80;99.90;;;;;;5000806;28;20434;-62
2021/07/08 11:14:07;;;;;;;2.00;1.90;;;17.80;99.90;;;;;;5000347;28;20815;-59
2021/07/08 11:16:44;;;;;;;1.80;1.70;;;17.80;99.90;;;;;;5007734;28;20426;-58
2021/07/08 11:19:31;;;;;;;2.27;2.13;;;17.80;99.90;;;;;;5002248;28;20423;-58
2021/07/08 11:21:59;;;;;;;2.17;1.60;;;17.90;99.90;;;;;;5007875;28;20534;-58
2021/07/08 11:24:54;;;;;;;6.23;2.40;;;18.00;99.90;;;;;;5009771;28;20702;-58
2021/07/08 11:27:40;;;;;;;2.30;2.10;;;18.00;99.90;;;;;;4991581;28;20842;-59
2021/07/08 11:30:14;;;;;;;2.13;1.93;;;18.10;99.90;;;;;;5007761;28;20862;-58
2021/07/08 11:32:46;;;;;;;2.07;1.97;;;18.30;99.90;;;;;;5009894;28;21005;-59
2021/07/08 11:35:17;;;;;;;2.90;2.10;;;18.40;99.90;;;;;;5009288;28;20850;-59
2021/07/08 11:37:54;;;;;;;2.10;2.00;;;18.50;99.90;;;;;;5005811;28;20648;-60
2021/07/08 11:40:26;;;;;;;4.93;2.03;;;18.60;99.90;;;;;;5004012;28;20435;-60
2021/07/08 11:42:55;;;;;;;2.97;2.50;;;18.70;99.90;;;;;;5006734;28;20466;-61
2021/07/08 11:45:26;;;;;;;4.73;1.57;;;18.80;99.90;;;;;;5009200;28;20435;-60
2021/07/08 11:47:54;;;;;;;2.57;1.90;;;18.80;99.90;;;;;;5006303;28;20438;-61
2021/07/08 11:50:19;;;;;;;1.77;1.67;;;18.90;99.90;;;;;;5006632;28;20521;-60
2021/07/08 11:52:49;;;;;;;3.30;1.70;;;18.90;99.90;;;;;;5008791;28;20947;-62
2021/07/08 11:55:15;;;;;;;1.40;1.30;;;18.90;99.90;;;;;;5001804;28;20243;-61
2021/07/08 11:57:59;;;;;;;1.90;1.80;;;18.90;99.90;;;;;;5006650;28;20418;-58
2021/07/08 12:00:42;;;;;;;1.83;1.73;;;18.90;99.90;;;;;;5004349;28;20950;-58
2021/07/08 12:03:30;;;;;;;2.07;1.60;;;18.90;99.90;;;;;;5005637;28;20474;-58
2021/07/08 12:06:24;;;;;;;3.33;1.90;;;18.90;99.90;;;;;;5005808;28;20471;-58
2021/07/08 12:08:53;;;;;;;1.60;1.50;;;19.00;99.90;;;;;;5003677;28;20466;-58
2021/07/08 12:12:06;;;;;;;1.87;1.70;;;19.00;99.90;;;;;;5005083;28;20442;-57
2021/07/08 12:14:23;;;;;;;2.73;2.10;;;19.10;99.90;;;;;;4995783;28;20455;-57
2021/07/08 12:16:54;;;;;;;1.73;1.57;;;19.10;99.90;;;;;;5006817;28;20706;-59
2021/07/08 12:19:29;;;;;;;1.70;1.60;;;19.30;99.90;;;;;;5002452;28;20431;-59
2021/07/08 12:22:02;;;;;;;1.60;1.50;;;19.50;99.90;;;;;;4994604;28;20463;-58
2021/07/08 12:24:33;;;;;;;1.60;1.50;;;19.70;99.90;;;;;;4999281;28;20947;-60
2021/07/08 12:27:00;;;;;;;1.43;1.23;;;19.90;99.90;;;;;;4999891;28;20943;-62
2021/07/08 12:29:43;;;;;;;1.60;1.40;;;19.90;99.90;;;;;;5000602;28;20514;-61
2021/07/08 12:32:17;;;;;;;1.43;1.33;;;20.00;99.90;;;;;;4993992;28;20566;-58
2021/07/08 12:34:53;;;;;;;1.50;1.40;;;20.20;99.90;;;;;;5001857;28;21001;-58
2021/07/08 12:37:25;;;;;;;1.60;1.50;;;20.30;99.90;;;;;;4994825;28;20435;-59
2021/07/08 12:40:15;;;;;;;1.70;1.43;;;20.50;99.90;;;;;;5001329;28;20435;-58
2021/07/08 12:42:49;;;;;;;1.80;1.70;;;20.80;99.90;;;;;;5007062;28;20463;-59
2021/07/08 12:45:26;;;;;;;1.60;1.50;;;21.00;99.90;;;;;;4992219;28;20446;-60
2021/07/08 12:47:54;;;;;;;1.87;1.50;;;21.10;99.90;;;;;;5008409;28;20430;-57
2021/07/08 12:50:25;;;;;;;1.67;1.57;;;21.40;99.90;;;;;;5006307;28;20858;-58
2021/07/08 12:52:58;;;;;;;1.90;1.70;;;21.70;99.90;;;;;;5008213;28;20451;-58
2021/07/08 12:55:44;;;;;;;3.37;1.50;;;21.70;99.30;;;;;;5005975;28;20550;-59
2021/07/08 12:58:25;;;;;;;1.53;1.43;;;21.80;99.20;;;;;;5000967;28;20455;-58
2021/07/08 13:00:52;;;;;;;2.23;1.80;;;22.20;99.90;;;;;;5005024;28;20424;-56
2021/07/08 13:03:29;;;;;;;2.13;1.40;;;22.80;98.80;;;;;;5006317;28;20444;-57